createdAt,value
2018-08-13T00:00:21.267Z,17.90
2018-08-13T00:02:03.608Z,17.89
2018-08-13T00:03:04.508Z,17.89
2018-08-13T00:04:04.240Z,17.89
2018-08-13T00:05:04.132Z,17.89
2018-08-13T00:06:04.628Z,17.87
2018-08-13T00:07:04.277Z,17.85
2018-08-13T00:08:04.739Z,17.82
2018-08-13T00:09:04.170Z,17.80
2018-08-13T00:10:04.586Z,17.78
2018-08-13T00:11:03.928Z,17.74
2018-08-13T00:12:04.309Z,17.71
2018-08-13T00:13:04.176Z,17.71
2018-08-13T00:14:03.653Z,17.70
2018-08-13T00:15:04.127Z,17.70
2018-08-13T00:16:29.654Z,17.72
2018-08-13T00:17:27.090Z,17.72
2018-08-13T00:18:27.764Z,17.70
2018-08-13T00:19:27.288Z,17.71
2018-08-13T00:20:26.864Z,17.68
2018-08-13T00:21:27.411Z,17.65
2018-08-13T00:22:26.980Z,17.64
2018-08-13T00:23:27.470Z,17.63
2018-08-13T00:24:27.164Z,17.59
2018-08-13T00:25:27.670Z,17.56
2018-08-13T00:26:28.302Z,17.54
2018-08-13T00:27:28.677Z,17.54
2018-08-13T00:28:27.560Z,17.56
2018-08-13T00:29:48.161Z,17.59
2018-08-13T00:30:48.740Z,17.57
2018-08-13T00:31:49.349Z,17.54
2018-08-13T00:32:48.607Z,17.54
2018-08-13T00:33:49.500Z,17.54
2018-08-13T00:34:49.098Z,17.52
2018-08-13T00:35:48.439Z,17.52
2018-08-13T00:36:48.974Z,17.54
2018-08-13T00:37:48.921Z,17.51
2018-08-13T00:38:48.378Z,17.51
2018-08-13T00:39:48.943Z,17.51
2018-08-13T00:40:48.620Z,17.51
2018-08-13T00:41:48.392Z,17.51
2018-08-13T00:42:49.731Z,17.49
2018-08-13T00:43:48.189Z,17.49
2018-08-13T00:44:48.632Z,17.49
2018-08-13T00:45:48.149Z,17.51
2018-08-13T00:46:48.972Z,17.49
2018-08-13T00:47:48.570Z,17.52
2018-08-13T00:48:48.529Z,17.54
2018-08-13T00:49:48.888Z,17.57
2018-08-13T00:50:48.358Z,17.59
2018-08-13T00:51:48.787Z,17.60
2018-08-13T00:52:48.225Z,17.63
2018-08-13T00:53:48.648Z,17.64
2018-08-13T00:54:48.281Z,17.67
2018-08-13T00:55:49.006Z,17.68
2018-08-13T00:56:48.628Z,17.71
2018-08-13T00:57:48.811Z,17.74
2018-08-13T00:58:48.638Z,17.78
2018-08-13T00:59:48.425Z,17.82
2018-08-13T01:00:49.213Z,17.83
2018-08-13T01:01:48.794Z,17.86
2018-08-13T01:03:09.480Z,17.90
2018-08-13T01:04:09.904Z,17.92
2018-08-13T01:05:31.828Z,17.97
2018-08-13T01:06:32.379Z,17.97
2018-08-13T01:07:32.338Z,18.01
2018-08-13T01:08:53.397Z,18.03
2018-08-13T01:09:54.216Z,18.03
2018-08-13T01:10:53.464Z,18.05
2018-08-13T01:11:53.858Z,18.08
2018-08-13T01:12:53.289Z,18.10
2018-08-13T01:13:53.547Z,18.10
2018-08-13T01:15:15.077Z,18.13
2018-08-13T01:16:14.914Z,18.15
2018-08-13T01:17:15.408Z,18.18
2018-08-13T01:18:15.153Z,18.19
2018-08-13T01:19:14.527Z,18.18
2018-08-13T01:20:15.305Z,18.19
2018-08-13T01:21:15.927Z,18.19
2018-08-13T01:22:15.348Z,18.20
2018-08-13T01:23:14.741Z,18.22
2018-08-13T01:24:36.439Z,18.18
2018-08-13T01:25:36.992Z,18.18
2018-08-13T01:26:36.603Z,18.15
2018-08-13T01:27:37.935Z,18.16
2018-08-13T01:28:37.587Z,18.16
2018-08-13T01:29:36.932Z,18.16
2018-08-13T01:30:36.526Z,18.15
2018-08-13T01:31:37.119Z,18.15
2018-08-13T01:32:36.883Z,18.15
2018-08-13T01:33:36.436Z,18.11
2018-08-13T01:35:19.464Z,18.15
2018-08-13T01:36:20.035Z,18.13
2018-08-13T01:37:19.510Z,18.15
2018-08-13T01:38:20.323Z,18.16
2018-08-13T01:39:19.883Z,18.18
2018-08-13T01:40:19.397Z,18.19
2018-08-13T01:41:19.815Z,18.22
2018-08-13T01:42:19.377Z,18.22
2018-08-13T01:43:41.514Z,18.26
2018-08-13T01:44:42.102Z,18.26
2018-08-13T01:45:41.469Z,18.29
2018-08-13T01:46:42.170Z,18.31
2018-08-13T01:47:42.241Z,18.31
2018-08-13T01:48:42.012Z,18.31
2018-08-13T01:49:41.591Z,18.33
2018-08-13T01:50:42.387Z,18.35
2018-08-13T01:51:43.360Z,18.37
2018-08-13T01:52:41.956Z,18.38
2018-08-13T01:54:03.036Z,18.40
2018-08-13T01:55:02.713Z,18.40
2018-08-13T01:56:25.054Z,18.44
2018-08-13T01:57:24.610Z,18.49
2018-08-13T01:58:26.172Z,18.50
2018-08-13T01:59:24.715Z,18.52
2018-08-13T02:00:25.383Z,18.52
2018-08-13T02:01:25.310Z,18.53
2018-08-13T02:02:24.780Z,18.53
2018-08-13T02:03:25.078Z,18.55
2018-08-13T02:04:24.778Z,18.55
2018-08-13T02:05:25.274Z,18.58
2018-08-13T02:06:25.178Z,18.56
2018-08-13T02:07:24.617Z,18.58
2018-08-13T02:08:46.538Z,18.60
2018-08-13T02:09:47.214Z,18.60
2018-08-13T02:10:46.945Z,18.60
2018-08-13T02:11:46.607Z,18.62
2018-08-13T02:12:47.232Z,18.62
2018-08-13T02:13:46.692Z,18.60
2018-08-13T02:14:47.486Z,18.59
2018-08-13T02:15:47.106Z,18.62
2018-08-13T02:16:46.476Z,18.60
2018-08-13T02:17:47.036Z,18.62
2018-08-13T02:18:46.673Z,18.62
2018-08-13T02:19:47.404Z,18.62
2018-08-13T02:20:47.430Z,18.63
2018-08-13T02:21:46.977Z,18.63
2018-08-13T02:22:46.791Z,18.63
2018-08-13T02:23:47.848Z,18.62
2018-08-13T02:24:47.449Z,18.63
2018-08-13T02:25:47.108Z,18.63
2018-08-13T02:26:46.635Z,18.65
2018-08-13T02:27:47.390Z,18.63
2018-08-13T02:29:29.588Z,18.63
2018-08-13T02:30:30.273Z,18.62
2018-08-13T02:31:29.804Z,18.59
2018-08-13T02:32:31.107Z,18.59
2018-08-13T02:33:29.881Z,18.59
2018-08-13T02:34:30.437Z,18.59
2018-08-13T02:35:30.172Z,18.59
2018-08-13T02:36:29.593Z,18.58
2018-08-13T02:37:30.212Z,18.56
2018-08-13T02:38:51.103Z,18.56
2018-08-13T02:39:51.822Z,18.56
2018-08-13T02:41:13.075Z,18.56
2018-08-13T02:42:35.302Z,18.56
2018-08-13T02:43:36.030Z,18.53
2018-08-13T02:44:35.493Z,18.55
2018-08-13T02:45:36.010Z,18.53
2018-08-13T02:47:18.534Z,18.52
2018-08-13T02:48:19.851Z,18.50
2018-08-13T02:49:19.401Z,18.47
2018-08-13T02:50:19.050Z,18.47
2018-08-13T02:51:19.454Z,18.44
2018-08-13T02:52:19.122Z,18.43
2018-08-13T02:53:18.721Z,18.41
2018-08-13T02:54:19.200Z,18.38
2018-08-13T02:55:18.906Z,18.37
2018-08-13T02:56:19.618Z,18.34
2018-08-13T02:57:19.141Z,18.34
2018-08-13T02:58:18.932Z,18.33
2018-08-13T02:59:18.596Z,18.33
2018-08-13T03:00:19.259Z,18.31
2018-08-13T03:01:19.049Z,18.29
2018-08-13T03:02:19.129Z,18.26
2018-08-13T03:03:18.679Z,18.26
2018-08-13T03:04:19.537Z,18.23
2018-08-13T03:05:19.072Z,18.23
2018-08-13T03:06:18.545Z,18.23
2018-08-13T03:07:19.363Z,18.23
2018-08-13T03:08:18.996Z,18.20
2018-08-13T03:09:18.699Z,18.19
2018-08-13T03:10:19.620Z,18.19
2018-08-13T03:11:40.483Z,18.15
2018-08-13T03:12:41.569Z,18.13
2018-08-13T03:14:02.805Z,18.08
2018-08-13T03:15:03.190Z,18.05
2018-08-13T03:16:03.035Z,18.03
2018-08-13T03:17:02.660Z,18.07
2018-08-13T03:18:45.122Z,18.05
2018-08-13T03:19:46.067Z,18.08
2018-08-13T03:20:45.767Z,18.07
2018-08-13T03:21:45.462Z,18.07
2018-08-13T03:22:45.634Z,18.07
2018-08-13T03:23:45.168Z,18.08
2018-08-13T03:24:45.737Z,18.08
2018-08-13T03:25:45.499Z,18.08
2018-08-13T03:26:45.182Z,18.10
2018-08-13T03:27:45.720Z,18.10
2018-08-13T03:29:06.377Z,18.10
2018-08-13T03:30:07.596Z,18.11
2018-08-13T03:31:28.232Z,18.13
2018-08-13T03:32:28.806Z,18.13
2018-08-13T03:33:29.241Z,18.15
2018-08-13T03:34:28.814Z,18.15
2018-08-13T03:35:28.628Z,18.18
2018-08-13T03:36:50.617Z,18.19
2018-08-13T03:37:51.434Z,18.19
2018-08-13T03:38:51.015Z,18.20
2018-08-13T03:40:33.459Z,18.20
2018-08-13T03:41:33.724Z,18.22
2018-08-13T03:42:34.474Z,18.22
2018-08-13T03:43:55.828Z,18.25
2018-08-13T03:44:56.379Z,18.26
2018-08-13T03:45:55.660Z,18.28
2018-08-13T03:46:56.513Z,18.28
2018-08-13T03:47:56.244Z,18.31
2018-08-13T03:48:55.944Z,18.31
2018-08-13T03:49:56.650Z,18.31
2018-08-13T03:50:56.148Z,18.34
2018-08-13T03:51:55.754Z,18.31
2018-08-13T03:52:56.440Z,18.31
2018-08-13T03:54:17.654Z,18.29
2018-08-13T03:55:18.223Z,18.29
2018-08-13T03:56:17.720Z,18.28
2018-08-13T03:57:18.268Z,18.26
2018-08-13T03:58:17.850Z,18.26
2018-08-13T03:59:18.644Z,18.25
2018-08-13T04:00:18.248Z,18.25
2018-08-13T04:01:39.228Z,18.22
2018-08-13T04:03:01.498Z,18.22
2018-08-13T04:04:02.228Z,18.19
2018-08-13T04:05:02.123Z,18.18
2018-08-13T04:06:01.718Z,18.18
2018-08-13T04:07:01.734Z,18.16
2018-08-13T04:08:02.459Z,18.16
2018-08-13T04:09:02.375Z,18.13
2018-08-13T04:10:02.133Z,18.11
2018-08-13T04:11:02.242Z,18.08
2018-08-13T04:12:47.288Z,18.08
2018-08-13T04:13:49.067Z,18.07
2018-08-13T04:14:47.829Z,18.07
2018-08-13T04:15:47.815Z,18.05
2018-08-13T04:17:09.348Z,18.07
2018-08-13T04:18:31.243Z,18.05
2018-08-13T04:19:32.293Z,18.03
2018-08-13T04:20:31.578Z,18.03
2018-08-13T04:21:32.177Z,18.01
2018-08-13T04:22:31.765Z,18.01
2018-08-13T04:23:31.344Z,18.00
2018-08-13T04:24:53.107Z,18.00
2018-08-13T04:25:53.999Z,18.00
2018-08-13T04:26:54.195Z,17.98
2018-08-13T04:27:53.818Z,18.00
2018-08-13T04:28:53.402Z,17.98
2018-08-13T04:29:54.090Z,17.98
2018-08-13T04:30:53.832Z,17.97
2018-08-13T04:31:53.724Z,17.95
2018-08-13T04:32:53.580Z,17.95
2018-08-13T04:33:53.562Z,17.98
2018-08-13T04:34:53.473Z,17.97
2018-08-13T04:35:54.357Z,17.97
2018-08-13T04:37:16.465Z,17.97
2018-08-13T04:38:38.399Z,18.00
2018-08-13T04:39:39.135Z,18.00
2018-08-13T04:40:38.704Z,18.01
2018-08-13T04:41:39.870Z,18.01
2018-08-13T04:42:38.452Z,18.01
2018-08-13T04:43:39.458Z,18.04
2018-08-13T04:44:39.488Z,18.05
2018-08-13T04:45:39.069Z,18.08
2018-08-13T04:46:38.612Z,18.10
2018-08-13T04:47:39.244Z,18.11
2018-08-13T04:48:38.873Z,18.11
2018-08-13T04:49:38.433Z,18.15
2018-08-13T04:50:39.150Z,18.18
2018-08-13T04:51:39.061Z,18.18
2018-08-13T04:52:38.729Z,18.19
2018-08-13T04:53:38.320Z,18.22
2018-08-13T04:54:38.916Z,18.23
2018-08-13T04:55:38.536Z,18.28
2018-08-13T04:56:39.321Z,18.31
2018-08-13T04:57:39.296Z,18.34
2018-08-13T04:58:39.239Z,18.38
2018-08-13T04:59:38.613Z,18.44
2018-08-13T05:00:39.465Z,18.52
2018-08-13T05:01:39.523Z,18.56
2018-08-13T05:02:39.457Z,18.62
2018-08-13T05:03:38.942Z,18.66
2018-08-13T05:04:38.581Z,18.71
2018-08-13T05:05:40.080Z,18.75
2018-08-13T05:06:38.877Z,18.81
2018-08-13T05:08:00.702Z,18.86
2018-08-13T05:09:01.419Z,18.89
2018-08-13T05:10:01.107Z,18.90
2018-08-13T05:11:00.964Z,18.93
2018-08-13T05:12:00.645Z,18.93
2018-08-13T05:13:00.226Z,18.96
2018-08-13T05:14:43.639Z,18.96
2018-08-13T05:15:44.228Z,18.99
2018-08-13T05:16:43.940Z,18.99
2018-08-13T05:17:44.924Z,18.99
2018-08-13T05:18:44.752Z,18.98
2018-08-13T05:19:44.986Z,18.96
2018-08-13T05:20:44.619Z,18.95
2018-08-13T05:21:44.223Z,18.92
2018-08-13T05:22:43.818Z,18.92
2018-08-13T05:23:44.720Z,18.89
2018-08-13T05:24:44.308Z,18.88
2018-08-13T05:25:44.059Z,18.84
2018-08-13T05:26:43.750Z,18.84
2018-08-13T05:27:44.621Z,18.83
2018-08-13T05:28:44.805Z,18.83
2018-08-13T05:30:06.507Z,18.83
2018-08-13T05:31:06.342Z,18.84
2018-08-13T05:32:06.458Z,18.86
2018-08-13T05:33:06.683Z,18.90
2018-08-13T05:34:06.605Z,18.92
2018-08-13T05:35:27.894Z,18.93
2018-08-13T05:36:28.609Z,18.96
2018-08-13T05:37:50.562Z,19.00
2018-08-13T05:38:50.524Z,19.04
2018-08-13T05:39:50.160Z,19.09
2018-08-13T05:40:50.672Z,19.14
2018-08-13T05:42:11.950Z,19.19
2018-08-13T05:43:12.946Z,19.24
2018-08-13T05:44:12.886Z,19.29
2018-08-13T05:45:12.708Z,19.34
2018-08-13T05:46:12.281Z,19.39
2018-08-13T05:47:12.243Z,19.45
2018-08-13T05:48:12.247Z,19.49
2018-08-13T05:49:13.060Z,19.56
2018-08-13T05:50:13.070Z,19.59
2018-08-13T05:51:12.814Z,19.62
2018-08-13T05:52:12.729Z,19.63
2018-08-13T05:53:34.202Z,19.64
2018-08-13T05:54:34.935Z,19.63
2018-08-13T05:55:35.176Z,19.64
2018-08-13T05:56:35.028Z,19.64
2018-08-13T05:57:34.817Z,19.63
2018-08-13T05:58:34.839Z,19.66
2018-08-13T05:59:56.472Z,19.69
2018-08-13T06:00:57.086Z,19.69
2018-08-13T06:01:57.056Z,19.70
2018-08-13T06:03:18.335Z,19.71
2018-08-13T06:04:18.268Z,19.76
2018-08-13T06:06:00.919Z,19.79
2018-08-13T06:07:01.512Z,19.79
2018-08-13T06:08:03.743Z,19.82
2018-08-13T06:09:01.575Z,19.84
2018-08-13T06:10:01.108Z,19.84
2018-08-13T06:11:00.844Z,19.86
2018-08-13T06:12:23.122Z,19.88
2018-08-13T06:13:26.042Z,19.89
2018-08-13T06:14:45.069Z,19.92
2018-08-13T06:15:45.685Z,19.99
2018-08-13T06:16:45.771Z,20.04
2018-08-13T06:17:45.395Z,20.10
2018-08-13T06:18:45.978Z,20.16
2018-08-13T06:20:51.382Z,20.29
2018-08-13T06:21:52.083Z,20.37
2018-08-13T06:22:51.731Z,20.43
2018-08-13T06:23:52.363Z,20.48
2018-08-13T06:24:51.807Z,20.55
2018-08-13T06:25:52.067Z,20.60
2018-08-13T06:26:51.750Z,20.65
2018-08-13T06:27:51.627Z,20.67
2018-08-13T06:28:51.477Z,20.75
2018-08-13T06:29:51.561Z,20.85
2018-08-13T06:30:51.181Z,20.93
2018-08-13T06:31:51.796Z,21.00
2018-08-13T06:32:51.413Z,21.00
2018-08-13T06:34:12.578Z,21.00
2018-08-13T06:35:13.276Z,21.05
2018-08-13T06:36:12.887Z,21.09
2018-08-13T06:37:12.874Z,21.12
2018-08-13T06:38:12.547Z,21.17
2018-08-13T06:39:55.855Z,21.21
2018-08-13T06:40:56.404Z,21.22
2018-08-13T06:41:56.193Z,21.21
2018-08-13T06:43:18.650Z,21.24
2018-08-13T06:44:19.233Z,21.24
2018-08-13T06:45:18.878Z,21.24
2018-08-13T06:46:18.819Z,21.24
2018-08-13T06:47:19.263Z,21.22
2018-08-13T06:48:40.605Z,21.21
2018-08-13T06:49:41.214Z,21.20
2018-08-13T06:51:02.511Z,21.20
2018-08-13T06:52:03.152Z,21.20
2018-08-13T06:53:03.175Z,21.20
2018-08-13T06:54:02.856Z,21.21
2018-08-13T06:55:03.621Z,21.21
2018-08-13T06:56:03.049Z,21.18
2018-08-13T06:57:02.880Z,21.17
2018-08-13T06:58:02.587Z,21.17
2018-08-13T06:59:24.922Z,21.12
2018-08-13T07:00:25.676Z,21.09
2018-08-13T07:01:25.313Z,21.07
2018-08-13T07:02:25.045Z,21.06
2018-08-13T07:03:24.642Z,21.06
2018-08-13T07:04:46.481Z,21.03
2018-08-13T07:05:47.220Z,21.02
2018-08-13T07:06:47.679Z,21.02
2018-08-13T07:07:47.706Z,21.02
2018-08-13T07:08:46.999Z,21.03
2018-08-13T07:09:47.002Z,21.05
2018-08-13T07:10:46.702Z,21.09
2018-08-13T07:11:47.410Z,21.12
2018-08-13T07:12:47.300Z,21.14
2018-08-13T07:13:46.929Z,21.18
2018-08-13T07:14:46.734Z,21.22
2018-08-13T07:16:08.019Z,21.20
2018-08-13T07:17:08.624Z,21.18
2018-08-13T07:18:08.461Z,21.17
2018-08-13T07:19:07.950Z,21.15
2018-08-13T07:20:08.739Z,21.14
2018-08-13T07:21:29.996Z,21.14
2018-08-13T07:22:52.375Z,21.20
2018-08-13T07:23:53.116Z,21.24
2018-08-13T07:24:53.046Z,21.32
2018-08-13T07:25:52.736Z,21.37
2018-08-13T07:26:52.288Z,21.46
2018-08-13T07:27:52.830Z,21.55
2018-08-13T07:28:52.658Z,21.67
2018-08-13T07:29:52.379Z,21.79
2018-08-13T07:30:52.436Z,21.92
2018-08-13T07:31:52.491Z,22.06
2018-08-13T07:32:52.079Z,22.18
2018-08-13T07:33:52.918Z,22.30
2018-08-13T07:35:14.056Z,22.50
2018-08-13T07:36:36.411Z,22.75
2018-08-13T07:37:37.087Z,22.91
2018-08-13T07:38:36.787Z,23.03
2018-08-13T07:39:58.961Z,23.06
2018-08-13T07:40:58.690Z,23.06
2018-08-13T07:41:58.367Z,23.02
2018-08-13T07:42:58.979Z,23.05
2018-08-13T07:44:20.711Z,22.99
2018-08-13T07:45:20.830Z,22.91
2018-08-13T07:46:20.333Z,22.80
2018-08-13T07:47:20.969Z,22.70
2018-08-13T07:48:41.883Z,22.50
2018-08-13T07:49:43.093Z,22.38
2018-08-13T07:51:03.616Z,22.20
2018-08-13T07:52:25.907Z,22.15
2018-08-13T07:53:26.847Z,22.11
2018-08-13T07:54:26.625Z,22.07
2018-08-13T07:55:26.486Z,22.00
2018-08-13T07:56:48.573Z,21.96
2018-08-13T07:57:48.482Z,21.96
2018-08-13T07:58:48.303Z,21.96
2018-08-13T08:00:10.538Z,21.91
2018-08-13T08:01:33.511Z,21.75
2018-08-13T08:02:34.486Z,21.73
2018-08-13T08:03:34.069Z,21.73
2018-08-13T08:04:34.186Z,21.70
2018-08-13T08:05:34.065Z,21.70
2018-08-13T08:06:33.748Z,21.69
2018-08-13T08:07:54.922Z,21.67
2018-08-13T08:08:55.613Z,21.67
2018-08-13T08:09:56.245Z,21.66
2018-08-13T08:10:55.170Z,21.58
2018-08-13T08:11:56.965Z,21.52
2018-08-13T08:12:55.641Z,21.51
2018-08-13T08:13:55.422Z,21.51
2018-08-13T08:15:17.266Z,21.45
2018-08-13T08:16:17.965Z,21.42
2018-08-13T08:17:17.923Z,21.42
2018-08-13T08:18:40.046Z,21.36
2018-08-13T08:20:02.687Z,21.32
2018-08-13T08:21:02.808Z,21.24
2018-08-13T08:22:02.529Z,21.15
2018-08-13T08:23:02.492Z,21.11
2018-08-13T08:24:02.351Z,21.06
2018-08-13T08:25:03.296Z,20.97
2018-08-13T08:26:02.452Z,20.88
2018-08-13T08:27:02.236Z,20.82
2018-08-13T08:28:01.890Z,20.78
2018-08-13T08:29:25.170Z,20.69
2018-08-13T08:30:25.946Z,20.63
2018-08-13T08:31:48.354Z,20.60
2018-08-13T08:32:48.063Z,20.59
2018-08-13T08:34:32.529Z,20.56
2018-08-13T08:35:31.697Z,20.51
2018-08-13T08:36:39.871Z,20.48
2018-08-13T08:37:31.712Z,20.47
2018-08-13T08:38:31.811Z,20.47
2018-08-13T08:39:31.960Z,20.51
2018-08-13T08:40:32.079Z,20.56
2018-08-13T08:41:31.782Z,20.56
2018-08-13T08:42:52.714Z,20.59
2018-08-13T08:43:53.408Z,20.62
2018-08-13T08:44:53.454Z,20.65
2018-08-13T08:45:53.434Z,20.66
2018-08-13T08:47:14.640Z,20.67
2018-08-13T08:48:15.441Z,20.69
2018-08-13T08:49:15.368Z,20.74
2018-08-13T08:50:15.644Z,20.82
2018-08-13T08:51:15.569Z,20.87
2018-08-13T08:52:15.286Z,20.96
2018-08-13T08:53:15.126Z,21.03
2018-08-13T08:54:15.603Z,21.11
2018-08-13T08:55:15.587Z,21.17
2018-08-13T08:56:15.130Z,21.24
2018-08-13T08:57:15.391Z,21.30
2018-08-13T08:58:15.519Z,21.40
2018-08-13T08:59:58.635Z,21.54
2018-08-13T09:00:59.771Z,21.58
2018-08-13T09:03:06.198Z,21.83
2018-08-13T09:04:06.170Z,22.00
2018-08-13T09:05:06.216Z,22.18
2018-08-13T09:06:06.278Z,22.26
2018-08-13T09:07:06.038Z,22.38
2018-08-13T09:08:05.959Z,22.50
2018-08-13T09:09:05.915Z,22.60
2018-08-13T09:10:05.593Z,22.76
2018-08-13T09:11:05.217Z,22.96
2018-08-13T09:12:06.733Z,23.10
2018-08-13T09:13:05.550Z,23.21
2018-08-13T09:14:05.141Z,23.24
2018-08-13T09:15:05.869Z,23.21
2018-08-13T09:16:05.863Z,23.23
2018-08-13T09:17:05.578Z,23.25
2018-08-13T09:18:05.375Z,23.34
2018-08-13T09:19:06.103Z,23.25
2018-08-13T09:20:05.744Z,23.28
2018-08-13T09:21:06.305Z,23.39
2018-08-13T09:22:06.424Z,23.37
2018-08-13T09:23:06.076Z,23.25
2018-08-13T09:24:06.013Z,23.28
2018-08-13T09:25:06.187Z,23.28
2018-08-13T09:26:05.982Z,23.37
2018-08-13T09:27:05.637Z,23.40
2018-08-13T09:28:05.866Z,23.37
2018-08-13T09:29:05.929Z,23.23
2018-08-13T09:30:05.806Z,23.21
2018-08-13T09:31:05.682Z,23.25
2018-08-13T09:32:26.649Z,23.40
2018-08-13T09:33:27.476Z,23.41
2018-08-13T09:34:27.300Z,23.34
2018-08-13T09:35:48.979Z,23.50
2018-08-13T09:36:48.826Z,23.41
2018-08-13T09:37:49.575Z,23.36
2018-08-13T09:38:49.266Z,23.32
2018-08-13T09:39:49.614Z,23.23
2018-08-13T09:40:49.411Z,23.17
2018-08-13T09:42:32.212Z,22.96
2018-08-13T09:43:32.242Z,22.96
2018-08-13T09:44:32.016Z,23.05
2018-08-13T09:45:33.053Z,22.94
2018-08-13T09:46:32.746Z,22.98
2018-08-13T09:47:32.536Z,23.00
2018-08-13T09:48:55.132Z,23.09
2018-08-13T09:49:54.906Z,23.17
2018-08-13T09:50:54.724Z,23.25
2018-08-13T09:51:54.411Z,23.36
2018-08-13T09:52:54.358Z,23.39
2018-08-13T09:53:54.284Z,23.39
2018-08-13T09:54:54.215Z,23.24
2018-08-13T09:55:54.450Z,23.23
2018-08-13T09:57:15.445Z,22.93
2018-08-13T09:58:37.778Z,22.85
2018-08-13T09:59:38.563Z,22.96
2018-08-13T10:00:38.385Z,23.10
2018-08-13T10:01:38.296Z,23.25
2018-08-13T10:02:38.186Z,23.39
2018-08-13T10:03:38.000Z,23.39
2018-08-13T10:05:00.564Z,23.31
2018-08-13T10:06:22.821Z,23.27
2018-08-13T10:07:45.431Z,23.32
2018-08-13T10:09:28.479Z,23.32
2018-08-13T10:10:29.577Z,23.31
2018-08-13T10:11:29.623Z,23.21
2018-08-13T10:12:50.737Z,23.03
2018-08-13T10:13:51.380Z,23.03
2018-08-13T10:14:51.132Z,23.09
2018-08-13T10:15:50.790Z,23.21
2018-08-13T10:16:51.380Z,23.28
2018-08-13T10:17:51.539Z,23.40
2018-08-13T10:18:51.654Z,23.46
2018-08-13T10:19:51.591Z,23.50
2018-08-13T10:20:51.652Z,23.59
2018-08-13T10:21:51.358Z,23.69
2018-08-13T10:23:12.975Z,23.86
2018-08-13T10:24:12.787Z,23.91
2018-08-13T10:25:12.644Z,23.80
2018-08-13T10:26:13.726Z,23.80
2018-08-13T10:27:13.529Z,23.74
2018-08-13T10:28:13.337Z,23.73
2018-08-13T10:29:13.019Z,23.73
2018-08-13T10:30:12.751Z,23.63
2018-08-13T10:31:12.597Z,23.62
2018-08-13T10:32:13.072Z,23.62
2018-08-13T10:33:34.198Z,23.62
2018-08-13T10:34:34.744Z,23.63
2018-08-13T10:35:34.485Z,23.71
2018-08-13T10:36:34.213Z,23.80
2018-08-13T10:37:34.483Z,23.91
2018-08-13T10:38:34.444Z,23.96
2018-08-13T10:39:55.746Z,23.87
2018-08-13T10:40:56.675Z,23.88
2018-08-13T10:41:56.173Z,23.91
2018-08-13T10:42:56.107Z,23.95
2018-08-13T10:43:55.897Z,23.92
2018-08-13T10:44:56.537Z,23.95
2018-08-13T10:45:56.438Z,23.95
2018-08-13T10:46:56.241Z,24.01
2018-08-13T10:47:56.664Z,24.32
2018-08-13T10:49:17.884Z,24.54
2018-08-13T10:50:18.749Z,24.61
2018-08-13T10:51:19.409Z,24.68
2018-08-13T10:52:18.020Z,24.81
2018-08-13T10:53:18.527Z,25.06
2018-08-13T10:54:18.103Z,25.18
2018-08-13T10:55:18.763Z,25.21
2018-08-13T10:56:18.754Z,26.02
2018-08-13T10:57:41.865Z,26.70
2018-08-13T10:58:41.436Z,27.12
2018-08-13T10:59:42.001Z,27.47
2018-08-13T11:00:40.780Z,27.86
2018-08-13T11:01:41.500Z,28.01
2018-08-13T11:03:03.175Z,28.01
2018-08-13T11:04:03.938Z,28.54
2018-08-13T11:05:03.441Z,28.74
2018-08-13T11:06:03.065Z,29.36
2018-08-13T11:07:03.738Z,29.61
2018-08-13T11:08:03.590Z,29.68
2018-08-13T11:09:24.671Z,29.95
2018-08-13T11:10:25.881Z,30.40
2018-08-13T11:11:25.023Z,31.14
2018-08-13T11:12:24.811Z,31.69
2018-08-13T11:13:26.115Z,31.77
2018-08-13T11:14:25.881Z,32.03
2018-08-13T11:15:25.651Z,32.46
2018-08-13T11:16:25.501Z,31.92
2018-08-13T11:17:25.237Z,31.37
2018-08-13T11:18:25.289Z,30.88
2018-08-13T11:19:25.065Z,30.37
2018-08-13T11:20:25.009Z,30.13
2018-08-13T11:21:24.917Z,29.78
2018-08-13T11:22:24.863Z,29.35
2018-08-13T11:23:25.901Z,29.05
2018-08-13T11:24:24.814Z,28.91
2018-08-13T11:25:25.758Z,28.79
2018-08-13T11:26:25.522Z,28.76
2018-08-13T11:27:25.401Z,28.47
2018-08-13T11:28:25.555Z,28.27
2018-08-13T11:29:25.102Z,27.85
2018-08-13T11:30:24.734Z,27.74
2018-08-13T11:31:47.673Z,27.77
2018-08-13T11:32:48.160Z,27.71
2018-08-13T11:33:48.564Z,27.74
2018-08-13T11:35:40.580Z,28.11
2018-08-13T11:36:42.755Z,28.79
2018-08-13T11:37:40.567Z,29.24
2018-08-13T11:38:43.384Z,29.19
2018-08-13T11:39:59.720Z,29.24
2018-08-13T11:40:45.404Z,29.59
2018-08-13T11:41:42.925Z,30.32
2018-08-13T11:42:41.880Z,30.70
2018-08-13T11:43:40.682Z,30.94
2018-08-13T11:45:09.062Z,30.78
2018-08-13T11:46:12.175Z,30.62
2018-08-13T11:47:33.706Z,31.47
2018-08-13T11:48:57.760Z,32.07
2018-08-13T11:49:57.193Z,32.27
2018-08-13T11:50:56.263Z,32.71
2018-08-13T11:51:55.963Z,33.36
2018-08-13T11:52:56.514Z,33.12
2018-08-13T11:53:55.900Z,32.23
2018-08-13T11:54:55.402Z,32.45
2018-08-13T11:56:01.137Z,32.45
2018-08-13T11:56:55.417Z,32.70
2018-08-13T11:58:05.492Z,33.20
2018-08-13T11:59:00.324Z,33.61
2018-08-13T11:59:55.822Z,33.74
2018-08-13T12:01:18.427Z,33.49
2018-08-13T12:02:20.833Z,33.84
2018-08-13T12:03:41.124Z,34.11
2018-08-13T12:04:42.025Z,34.08
2018-08-13T12:05:41.027Z,33.81
2018-08-13T12:06:41.665Z,33.31
2018-08-13T12:07:41.733Z,32.65
2018-08-13T12:08:42.012Z,32.29
2018-08-13T12:10:07.073Z,32.12
2018-08-13T12:11:09.150Z,32.12
2018-08-13T12:12:08.193Z,32.00
2018-08-13T12:13:06.453Z,32.07
2018-08-13T12:14:12.318Z,32.46
2018-08-13T12:15:10.001Z,32.46
2018-08-13T12:16:51.023Z,31.69
2018-08-13T12:17:51.847Z,30.90
2018-08-13T12:18:51.331Z,30.65
2018-08-13T12:19:56.091Z,30.31
2018-08-13T12:20:52.512Z,30.80
2018-08-13T12:21:52.593Z,31.47
2018-08-13T12:22:52.285Z,31.94
2018-08-13T12:23:51.412Z,32.37
2018-08-13T12:24:51.199Z,32.59
2018-08-13T12:25:51.823Z,32.41
2018-08-13T12:26:51.178Z,32.48
2018-08-13T12:27:51.027Z,32.52
2018-08-13T12:28:50.862Z,32.34
2018-08-13T12:29:51.708Z,32.53
2018-08-13T12:30:51.587Z,32.14
2018-08-13T12:31:51.780Z,32.12
2018-08-13T12:32:52.302Z,32.03
2018-08-13T12:33:51.612Z,31.99
2018-08-13T12:34:52.112Z,31.73
2018-08-13T12:35:51.069Z,31.76
2018-08-13T12:36:50.763Z,31.12
2018-08-13T12:37:51.797Z,31.33
2018-08-13T12:38:52.102Z,31.54
2018-08-13T12:39:51.380Z,32.07
2018-08-13T12:40:52.281Z,32.86
2018-08-13T12:41:53.426Z,32.71
2018-08-13T12:42:51.213Z,32.34
2018-08-13T12:43:52.691Z,32.08
2018-08-13T12:44:52.781Z,31.81
2018-08-13T12:45:52.885Z,31.56
2018-08-13T12:47:12.565Z,31.49
2018-08-13T12:48:13.680Z,31.74
2018-08-13T12:49:14.767Z,31.37
2018-08-13T12:50:14.991Z,31.09
2018-08-13T12:51:12.858Z,31.10
2018-08-13T12:52:35.702Z,31.54
2018-08-13T12:53:35.613Z,31.59
2018-08-13T12:54:35.835Z,31.80
2018-08-13T12:55:35.894Z,32.07
2018-08-13T12:56:36.426Z,32.55
2018-08-13T12:57:37.834Z,32.68
2018-08-13T12:58:57.090Z,32.27
2018-08-13T12:59:58.294Z,32.07
2018-08-13T13:00:58.365Z,31.61
2018-08-13T13:01:58.097Z,31.21
2018-08-13T13:02:58.140Z,30.92
2018-08-13T13:03:58.156Z,30.88
2018-08-13T13:04:58.522Z,30.84
2018-08-13T13:05:57.972Z,30.69
2018-08-13T13:06:58.037Z,30.53
2018-08-13T13:08:19.970Z,29.84
2018-08-13T13:09:22.529Z,29.82
2018-08-13T13:10:21.829Z,30.03
2018-08-13T13:11:21.006Z,30.12
2018-08-13T13:12:21.183Z,29.91
2018-08-13T13:13:21.875Z,29.73
2018-08-13T13:14:20.776Z,29.49
2018-08-13T13:15:20.949Z,29.29
2018-08-13T13:16:20.178Z,29.12
2018-08-13T13:17:20.300Z,29.01
2018-08-13T13:18:21.051Z,28.82
2018-08-13T13:19:20.609Z,28.52
2018-08-13T13:20:21.501Z,28.41
2018-08-13T13:21:20.803Z,28.30
2018-08-13T13:22:20.164Z,28.12
2018-08-13T13:23:20.341Z,28.12
2018-08-13T13:24:20.753Z,28.01
2018-08-13T13:25:20.946Z,27.95
2018-08-13T13:27:04.816Z,27.78
2018-08-13T13:28:31.556Z,27.65
2018-08-13T13:29:28.431Z,27.54
2018-08-13T13:31:11.926Z,27.45
2018-08-13T13:32:11.730Z,27.37
2018-08-13T13:33:11.426Z,27.10
2018-08-13T13:34:12.223Z,27.08
2018-08-13T13:35:12.469Z,27.20
2018-08-13T13:36:32.991Z,27.49
2018-08-13T13:37:33.739Z,27.93
2018-08-13T13:38:33.535Z,28.08
2018-08-13T13:39:33.594Z,28.39
2018-08-13T13:41:17.541Z,28.37
2018-08-13T13:42:17.598Z,28.37
2018-08-13T13:43:17.421Z,28.29